Rushville, Illinois
Current Conditions -  °F | °C
As of 5:55 AM on Thursday 23 Oct 2014 (Local Time) from KMQB Reporting Station
Clear Clear  
Wind Chill: 31°   Ceiling: Unl
Heat Index: 37°   Visibility: 10mi
Dew Point: 36°   Wind: 8mph
Humidity: 97%   Direction: 160°SSE
Pressure: 30.19"   Gusts: NA
Location:  40.12°N, 90.56°W
Report Text: KMQB 231055Z AUTO 16007KT 10SM CLR 03/02 A3019 RMK AO2 T00260022
Loading
Personal Weather Stations






























Interactive Weather Map
Tropical Storm Tracking
New forecast layout! Learn more

10-Day Weather Forecast

Advertisements
Track Severe Weather on mobile